Time;durP1;ratioP1;P1;durP2;ratioP2;P2;SDS_P1;SDS_P2;PMS_P1;PMS_P2;Temp;Humidity;BMP_temperature;BMP_pressure;BME280_temperature;BME280_humidity;BME280_pressure;Samples;Min_cycle;Max_cycle;Signal;HPM_P1;HPM_P2
2022/03/21 00:00:30;;;;;;;30.73;12.90;;;4.00;50.10;;;;;;5070038;27;20078;-76
2022/03/21 00:03:01;;;;;;;36.30;12.70;;;4.00;49.60;;;;;;5098770;27;20028;-76
2022/03/21 00:05:30;;;;;;;31.10;11.30;;;4.00;49.50;;;;;;5083246;27;20044;-76
2022/03/21 00:07:57;;;;;;;37.67;13.48;;;4.00;49.80;;;;;;5101951;27;20047;-77
2022/03/21 00:10:24;;;;;;;29.98;10.63;;;4.00;50.00;;;;;;5110447;27;20053;-76
2022/03/21 00:12:51;;;;;;;33.13;12.52;;;4.00;49.80;;;;;;5091748;27;20051;-76
2022/03/21 00:15:19;;;;;;;24.52;11.23;;;3.90;50.00;;;;;;5082812;27;20592;-76
2022/03/21 00:17:46;;;;;;;28.27;10.50;;;3.90;49.90;;;;;;5097699;27;20449;-76
2022/03/21 00:20:15;;;;;;;26.88;10.55;;;4.10;49.80;;;;;;5095415;28;20120;-76
2022/03/21 00:22:42;;;;;;;33.20;11.57;;;3.90;49.50;;;;;;5082319;27;20095;-76
2022/03/21 00:25:09;;;;;;;29.17;10.52;;;4.00;49.60;;;;;;5098844;28;20050;-76
2022/03/21 00:27:38;;;;;;;27.00;12.00;;;3.90;49.80;;;;;;5096207;28;20043;-75
2022/03/21 00:30:09;;;;;;;35.53;12.65;;;3.70;50.60;;;;;;5097142;27;20085;-76
2022/03/21 00:32:37;;;;;;;26.83;10.95;;;3.60;50.50;;;;;;5101631;28;20738;-76
2022/03/21 00:35:15;;;;;;;32.40;12.40;;;3.70;50.00;;;;;;5097622;28;20047;-76
2022/03/21 00:37:43;;;;;;;;;;;3.60;50.40;;;;;;5098217;28;20035;-76
2022/03/21 00:40:12;;;;;;;32.17;10.23;;;3.40;50.60;;;;;;5096740;28;19938;-76
2022/03/21 00:42:41;;;;;;;23.75;9.85;;;3.40;51.50;;;;;;5100158;28;21113;-76
2022/03/21 00:45:16;;;;;;;28.83;11.85;;;3.30;51.30;;;;;;5095965;28;20048;-76
2022/03/21 00:47:45;;;;;;;30.00;10.60;;;3.10;52.00;;;;;;5110650;28;20542;-75
2022/03/21 00:50:14;;;;;;;27.77;11.15;;;3.10;51.90;;;;;;5080859;28;20051;-75
2022/03/21 00:52:43;;;;;;;34.58;11.60;;;3.40;51.80;;;;;;5094534;28;20050;-75
2022/03/21 00:55:11;;;;;;;33.00;12.77;;;3.30;51.40;;;;;;5100225;28;20043;-75
2022/03/21 00:57:42;;;;;;;34.95;12.93;;;3.40;51.50;;;;;;5097661;28;20174;-74
2022/03/21 01:00:16;;;;;;;27.77;12.32;;;3.50;51.30;;;;;;5094105;28;20032;-74
2022/03/21 01:02:43;;;;;;;30.80;11.15;;;3.40;51.20;;;;;;5094234;28;21636;-74
2022/03/21 01:05:11;;;;;;;30.08;11.45;;;3.00;52.00;;;;;;5090808;28;20054;-74
2022/03/21 01:07:40;;;;;;;28.40;10.98;;;2.70;52.60;;;;;;5111401;27;20061;-74
2022/03/21 01:10:09;;;;;;;32.60;11.45;;;2.70;52.70;;;;;;5109915;28;20039;-74
2022/03/21 01:12:37;;;;;;;32.83;11.63;;;2.80;52.80;;;;;;5077859;28;20748;-74
2022/03/21 01:15:07;;;;;;;29.90;11.75;;;2.90;52.80;;;;;;5097707;28;20078;-74
2022/03/21 01:17:34;;;;;;;27.30;10.27;;;3.00;52.30;;;;;;5094294;28;20054;-75
2022/03/21 01:20:04;;;;;;;32.17;11.75;;;3.20;51.90;;;;;;5115981;28;20515;-75
2022/03/21 01:22:31;;;;;;;26.88;10.10;;;3.20;51.30;;;;;;5099762;27;20043;-74
2022/03/21 01:25:01;;;;;;;28.15;10.20;;;3.30;51.70;;;;;;5084017;27;20043;-74
2022/03/21 01:27:29;;;;;;;28.52;10.43;;;3.10;51.60;;;;;;5101604;27;20043;-74
2022/03/21 01:29:56;;;;;;;20.63;9.40;;;3.30;51.10;;;;;;5079931;27;20047;-74
2022/03/21 01:32:23;;;;;;;27.77;9.10;;;3.40;51.00;;;;;;5101762;27;20479;-74
2022/03/21 01:34:50;;;;;;;26.15;9.52;;;3.30;50.40;;;;;;5096820;27;20050;-75
2022/03/21 01:37:17;;;;;;;22.20;7.85;;;3.40;49.90;;;;;;5100134;27;20044;-75
2022/03/21 01:39:44;;;;;;;24.15;8.68;;;3.60;49.60;;;;;;5098447;27;20066;-75
2022/03/21 01:42:11;;;;;;;23.00;7.65;;;3.70;49.20;;;;;;5101293;27;20054;-75
2022/03/21 01:44:38;;;;;;;20.40;7.35;;;3.70;49.10;;;;;;5098214;27;20044;-75
2022/03/21 01:47:05;;;;;;;24.45;7.70;;;3.70;48.90;;;;;;5083663;27;20051;-75
2022/03/21 01:49:32;;;;;;;18.58;7.85;;;3.80;48.60;;;;;;5099935;27;20071;-74
2022/03/21 01:52:00;;;;;;;24.08;9.30;;;3.90;48.40;;;;;;5099374;27;20046;-74
2022/03/21 01:57:14;;;;;;;22.02;8.43;;;4.00;47.90;;;;;;5120089;27;20703;-75
2022/03/21 01:59:46;;;;;;;20.75;8.68;;;3.90;48.20;;;;;;5103944;27;20059;-75
2022/03/21 02:02:13;;;;;;;24.73;8.52;;;4.00;48.20;;;;;;5112824;27;20116;-75
2022/03/21 02:04:42;;;;;;;28.48;9.25;;;4.10;48.00;;;;;;5097526;27;20047;-74
2022/03/21 02:07:09;;;;;;;20.80;9.07;;;4.10;48.00;;;;;;5100273;27;20135;-74
2022/03/21 02:09:37;;;;;;;25.90;8.88;;;4.20;47.90;;;;;;5096598;27;20054;-75
2022/03/21 02:12:04;;;;;;;23.83;8.40;;;4.20;48.00;;;;;;5093477;27;20067;-75
2022/03/21 02:14:35;;;;;;;23.75;7.70;;;3.80;48.60;;;;;;5098217;27;20103;-75
2022/03/21 02:17:02;;;;;;;18.52;7.35;;;3.90;49.40;;;;;;5084276;27;20048;-75
2022/03/21 02:19:36;;;;;;;25.17;8.98;;;3.90;49.00;;;;;;5086446;27;20544;-75
2022/03/21 02:22:31;;;;;;;24.48;9.15;;;3.80;48.70;;;;;;5096836;27;20518;-75
2022/03/21 02:25:30;;;;;;;24.52;9.45;;;3.50;49.30;;;;;;5099279;27;20939;-75
2022/03/21 02:28:02;;;;;;;27.25;8.45;;;3.30;50.00;;;;;;5114821;27;20046;-76
2022/03/21 02:30:34;;;;;;;28.98;8.45;;;3.10;50.70;;;;;;5102671;27;20043;-76
2022/03/21 02:33:01;;;;;;;20.98;8.40;;;3.10;50.90;;;;;;5099882;27;21025;-76
2022/03/21 02:35:30;;;;;;;20.75;8.25;;;3.10;51.10;;;;;;5101202;27;20131;-77
2022/03/21 02:37:58;;;;;;;17.40;7.38;;;3.20;50.80;;;;;;5117553;27;20136;-78
2022/03/21 02:40:25;;;;;;;18.63;7.65;;;3.20;51.50;;;;;;5102963;27;20067;-77
2022/03/21 02:42:53;;;;;;;18.95;7.35;;;3.20;50.70;;;;;;5096240;27;20062;-74
2022/03/21 02:45:21;;;;;;;16.83;6.47;;;3.20;50.70;;;;;;5098498;27;20910;-75
2022/03/21 02:47:48;;;;;;;21.98;8.00;;;3.20;51.00;;;;;;5099652;27;20984;-75
2022/03/21 02:50:32;;;;;;;18.90;7.63;;;3.20;50.70;;;;;;5085265;27;20043;-75
2022/03/21 02:53:01;;;;;;;20.48;7.18;;;3.00;51.40;;;;;;5096488;27;20047;-75
2022/03/21 02:55:28;;;;;;;21.95;7.75;;;3.00;51.60;;;;;;5116455;27;20038;-75
2022/03/21 02:57:55;;;;;;;28.73;8.85;;;2.80;51.70;;;;;;5100525;27;20093;-74
2022/03/21 03:00:22;;;;;;;19.60;8.63;;;2.40;52.80;;;;;;5097481;27;20051;-76
2022/03/21 03:02:49;;;;;;;17.35;7.55;;;2.50;53.30;;;;;;5099120;27;20500;-76
2022/03/21 03:05:16;;;;;;;23.67;8.05;;;2.70;52.70;;;;;;5100352;27;20520;-76
2022/03/21 03:07:43;;;;;;;22.45;8.93;;;2.80;52.20;;;;;;5082868;27;20613;-76
2022/03/21 03:10:10;;;;;;;23.52;8.07;;;2.90;51.80;;;;;;5079348;27;20055;-76
2022/03/21 03:12:37;;;;;;;26.80;8.40;;;2.80;52.00;;;;;;5113610;27;20054;-76
2022/03/21 03:15:05;;;;;;;35.88;10.43;;;2.80;51.60;;;;;;5101071;27;20039;-76
2022/03/21 03:17:32;;;;;;;26.17;9.15;;;2.90;51.40;;;;;;5098180;27;20573;-76
2022/03/21 03:19:59;;;;;;;19.77;8.82;;;2.80;51.50;;;;;;5084729;27;20488;-76
2022/03/21 03:22:28;;;;;;;19.48;7.35;;;2.80;51.50;;;;;;5082013;27;20050;-76
2022/03/21 03:24:56;;;;;;;20.77;8.45;;;2.90;51.40;;;;;;5100062;27;20043;-76
2022/03/21 03:27:23;;;;;;;18.85;7.25;;;2.90;51.10;;;;;;5091896;27;20518;-76
2022/03/21 03:29:50;;;;;;;24.17;7.95;;;2.80;51.60;;;;;;5097623;27;20067;-76
2022/03/21 03:32:17;;;;;;;20.65;7.03;;;2.80;51.40;;;;;;5100760;27;20043;-76
2022/03/21 03:34:45;;;;;;;21.45;7.78;;;3.00;51.20;;;;;;5081823;27;20051;-75
2022/03/21 03:37:16;;;;;;;22.00;8.13;;;2.70;51.40;;;;;;5083622;27;20122;-75
2022/03/21 03:39:43;;;;;;;16.88;6.65;;;2.70;51.90;;;;;;5114416;27;20035;-75
2022/03/21 03:42:11;;;;;;;23.63;7.90;;;2.80;51.70;;;;;;5093667;27;20441;-75
2022/03/21 03:44:38;;;;;;;19.17;7.93;;;2.80;51.60;;;;;;5098911;27;20039;-75
2022/03/21 03:47:05;;;;;;;21.52;7.03;;;2.70;51.60;;;;;;5094814;27;20039;-75
2022/03/21 03:49:32;;;;;;;22.27;7.82;;;2.40;52.60;;;;;;5097801;27;20043;-75
2022/03/21 03:51:59;;;;;;;20.45;8.07;;;2.30;53.20;;;;;;5112406;27;20139;-75
2022/03/21 03:54:26;;;;;;;17.25;6.20;;;2.30;53.10;;;;;;5093784;27;20048;-75
2022/03/21 03:56:53;;;;;;;22.25;7.72;;;2.20;53.60;;;;;;5109785;27;20051;-75
2022/03/21 03:59:20;;;;;;;23.17;6.72;;;2.10;54.10;;;;;;5085356;27;20043;-75
2022/03/21 04:01:47;;;;;;;18.13;6.30;;;2.30;53.70;;;;;;5097032;27;20063;-75
2022/03/21 04:04:14;;;;;;;17.25;6.68;;;2.40;53.20;;;;;;5095493;27;20067;-75
2022/03/21 04:06:42;;;;;;;23.27;8.27;;;2.40;53.10;;;;;;5100636;27;20535;-77
2022/03/21 04:09:09;;;;;;;19.98;7.65;;;2.20;53.10;;;;;;5081280;27;20033;-75
2022/03/21 04:11:36;;;;;;;23.73;8.00;;;2.20;53.60;;;;;;5095847;27;20074;-76
2022/03/21 04:14:03;;;;;;;23.30;8.95;;;2.10;53.90;;;;;;5096889;27;20501;-75
2022/03/21 04:16:31;;;;;;;19.55;7.85;;;2.20;53.60;;;;;;5113344;27;20031;-76
2022/03/21 04:18:59;;;;;;;21.75;8.57;;;2.10;54.10;;;;;;5097090;27;20051;-76
2022/03/21 04:21:27;;;;;;;19.23;7.03;;;2.20;54.30;;;;;;5097799;27;20051;-76
2022/03/21 04:23:56;;;;;;;22.55;8.05;;;2.30;53.60;;;;;;5113713;27;20039;-76
2022/03/21 04:26:24;;;;;;;16.50;6.75;;;2.30;53.60;;;;;;5113583;27;20050;-75
2022/03/21 04:28:51;;;;;;;19.05;7.20;;;2.20;53.80;;;;;;5113306;27;20555;-76
2022/03/21 04:31:18;;;;;;;20.23;7.88;;;2.20;54.00;;;;;;5095501;28;20043;-76
2022/03/21 04:33:45;;;;;;;20.10;7.65;;;2.30;53.30;;;;;;5097982;28;20039;-76
2022/03/21 04:36:13;;;;;;;19.63;8.32;;;2.30;53.70;;;;;;5097459;28;20047;-76
2022/03/21 04:38:41;;;;;;;24.85;7.75;;;2.20;54.10;;;;;;5079778;28;20039;-76
2022/03/21 04:41:08;;;;;;;26.60;8.55;;;2.10;53.80;;;;;;5084261;28;20766;-76
2022/03/21 04:43:35;;;;;;;27.55;8.27;;;2.20;54.00;;;;;;5096844;28;20043;-76
2022/03/21 04:46:02;;;;;;;20.67;8.40;;;1.90;54.40;;;;;;5112651;28;20047;-76
2022/03/21 04:48:29;;;;;;;26.90;9.05;;;2.00;54.50;;;;;;5100266;28;20047;-76
2022/03/21 04:50:57;;;;;;;22.30;9.05;;;1.90;54.70;;;;;;5097027;28;20054;-75
2022/03/21 04:53:24;;;;;;;23.95;7.35;;;1.80;54.70;;;;;;5095635;28;20120;-76
2022/03/21 04:55:51;;;;;;;22.58;7.85;;;1.90;54.50;;;;;;5116951;27;20500;-76
2022/03/21 04:58:19;;;;;;;20.75;7.43;;;1.90;54.30;;;;;;5117619;27;20063;-76
2022/03/21 05:00:46;;;;;;;19.08;7.32;;;1.80;54.30;;;;;;5117921;27;20088;-76
2022/03/21 05:03:13;;;;;;;27.42;8.50;;;1.70;55.40;;;;;;5096520;27;20044;-76
2022/03/21 05:05:44;;;;;;;23.75;8.05;;;1.80;54.60;;;;;;5089748;27;20055;-78
2022/03/21 05:08:11;;;;;;;24.05;8.27;;;2.00;54.50;;;;;;5102497;27;20495;-78
2022/03/21 05:10:38;;;;;;;22.02;9.65;;;2.20;54.00;;;;;;5116935;27;20759;-78
2022/03/21 05:13:06;;;;;;;29.73;10.55;;;2.10;53.70;;;;;;5100598;27;20098;-78
2022/03/21 05:15:35;;;;;;;27.20;9.25;;;2.20;53.70;;;;;;5083775;27;20400;-77
2022/03/21 05:18:04;;;;;;;32.63;9.07;;;2.30;53.80;;;;;;5088192;27;20131;-79
2022/03/21 05:20:32;;;;;;;29.52;9.02;;;2.30;54.10;;;;;;5102071;27;20043;-79
2022/03/21 05:31:16;;;;;;;24.27;9.18;;;2.30;54.00;;;;;;5100849;27;20074;-79
2022/03/21 05:36:29;;;;;;;28.73;8.73;;;2.40;53.40;;;;;;5097411;27;20562;-74
2022/03/21 05:38:57;;;;;;;28.02;9.30;;;2.30;53.70;;;;;;5098923;27;20047;-74
2022/03/21 05:41:25;;;;;;;27.27;7.85;;;2.40;53.80;;;;;;5099080;27;20124;-74
2022/03/21 05:43:52;;;;;;;27.05;8.93;;;2.40;53.60;;;;;;5078621;27;21204;-74
2022/03/21 05:46:21;;;;;;;25.67;8.82;;;2.40;54.00;;;;;;5097664;27;20051;-75
2022/03/21 05:48:52;;;;;;;29.60;8.75;;;2.40;54.00;;;;;;5084443;27;20058;-75
2022/03/21 05:51:22;;;;;;;20.25;7.65;;;2.60;53.60;;;;;;5117362;27;20035;-75
2022/03/21 05:53:51;;;;;;;24.40;8.77;;;2.80;53.10;;;;;;5113085;27;20043;-75
2022/03/21 05:56:19;;;;;;;25.98;9.95;;;2.90;53.00;;;;;;5116730;27;20061;-75
2022/03/21 05:58:46;;;;;;;27.02;9.93;;;3.00;52.40;;;;;;5099603;27;20537;-75
2022/03/21 06:01:18;;;;;;;25.90;9.45;;;3.10;52.60;;;;;;5113495;27;20062;-75
2022/03/21 06:03:47;;;;;;;27.95;11.68;;;3.20;52.10;;;;;;5112389;27;20041;-75
2022/03/21 06:06:15;;;;;;;25.30;9.32;;;3.40;51.80;;;;;;5097692;27;20046;-75
2022/03/21 06:08:43;;;;;;;27.58;10.60;;;3.50;51.80;;;;;;5101399;27;20040;-75
2022/03/21 06:11:12;;;;;;;28.10;12.02;;;3.60;51.50;;;;;;5091966;27;20040;-75
2022/03/21 06:13:42;;;;;;;25.85;11.23;;;3.80;50.90;;;;;;5113535;27;20077;-75
2022/03/21 06:16:11;;;;;;;24.23;10.40;;;3.80;51.00;;;;;;5115876;27;20398;-75
2022/03/21 06:18:40;;;;;;;27.33;11.00;;;3.90;50.50;;;;;;5115322;27;20059;-76
2022/03/21 06:21:09;;;;;;;23.40;10.35;;;4.10;50.00;;;;;;5091466;27;20516;-75
2022/03/21 06:23:37;;;;;;;23.75;10.07;;;4.20;49.90;;;;;;5112916;27;20036;-75
2022/03/21 06:26:05;;;;;;;27.15;11.05;;;4.20;49.80;;;;;;5094706;27;20494;-75
2022/03/21 06:28:34;;;;;;;22.73;9.77;;;4.40;49.30;;;;;;5076568;27;20035;-75
2022/03/21 06:31:02;;;;;;;28.52;11.23;;;4.50;49.20;;;;;;5080495;27;20058;-80
2022/03/21 06:33:31;;;;;;;31.38;12.05;;;4.60;49.30;;;;;;5082919;27;20051;-80
2022/03/21 06:36:00;;;;;;;26.58;9.48;;;4.50;49.60;;;;;;5114416;27;20428;-79
2022/03/21 06:38:28;;;;;;;25.50;9.98;;;4.70;49.20;;;;;;5118699;27;20393;-80
2022/03/21 06:40:55;;;;;;;23.27;8.85;;;4.70;49.40;;;;;;5101105;27;20031;-80
2022/03/21 06:43:24;;;;;;;22.63;8.93;;;4.80;49.40;;;;;;5081655;27;20059;-80
2022/03/21 06:45:52;;;;;;;22.33;8.60;;;4.90;48.80;;;;;;5116959;27;20084;-80
2022/03/21 06:48:20;;;;;;;15.30;7.70;;;5.00;48.50;;;;;;5083092;27;20047;-81
2022/03/21 06:50:48;;;;;;;17.88;8.35;;;5.10;48.30;;;;;;5114547;27;20118;-79
2022/03/21 06:53:17;;;;;;;23.10;9.07;;;5.30;47.90;;;;;;5083115;27;20461;-79
2022/03/21 06:55:45;;;;;;;23.38;8.95;;;5.40;47.60;;;;;;5086110;27;20047;-80
2022/03/21 06:58:13;;;;;;;21.15;7.85;;;5.50;47.30;;;;;;5067782;27;20047;-80
2022/03/21 07:00:42;;;;;;;15.90;8.50;;;5.50;47.40;;;;;;5085614;27;20043;-80
2022/03/21 07:03:14;;;;;;;18.77;7.53;;;5.60;46.60;;;;;;5057584;27;20065;-80
2022/03/21 07:05:43;;;;;;;13.95;6.13;;;5.80;46.40;;;;;;5075809;27;20048;-80
2022/03/21 07:08:10;;;;;;;14.52;6.28;;;5.90;46.00;;;;;;5062333;27;20052;-80
2022/03/21 07:10:40;;;;;;;14.85;6.18;;;6.00;45.30;;;;;;5065816;27;20047;-80
2022/03/21 07:13:08;;;;;;;15.35;6.80;;;6.10;45.00;;;;;;5055236;27;20143;-80
2022/03/21 07:15:35;;;;;;;13.35;6.80;;;6.20;44.80;;;;;;5059511;27;20763;-80
2022/03/21 07:18:02;;;;;;;13.38;6.32;;;6.40;44.50;;;;;;5070394;27;20509;-80
2022/03/21 07:20:29;;;;;;;14.77;6.68;;;6.40;44.50;;;;;;5060775;27;20051;-80
2022/03/21 07:22:58;;;;;;;13.63;6.13;;;6.50;45.00;;;;;;5072268;27;20134;-76
2022/03/21 07:25:25;;;;;;;15.38;7.18;;;6.60;44.50;;;;;;5067947;27;20216;-76
2022/03/21 07:27:52;;;;;;;13.93;7.05;;;6.70;44.10;;;;;;5084746;27;20046;-77
2022/03/21 07:30:20;;;;;;;13.98;6.25;;;6.90;43.40;;;;;;5067959;27;20512;-76
2022/03/21 07:32:47;;;;;;;12.52;6.40;;;7.00;43.20;;;;;;5069481;27;21228;-76
2022/03/21 07:35:14;;;;;;;14.88;6.68;;;7.00;43.50;;;;;;5086716;27;20937;-77
2022/03/21 07:37:45;;;;;;;17.15;7.75;;;7.10;43.00;;;;;;5069571;27;20080;-77
2022/03/21 07:40:14;;;;;;;15.65;6.75;;;7.20;43.30;;;;;;5069700;27;20142;-77
2022/03/21 07:42:44;;;;;;;17.48;7.57;;;7.30;43.40;;;;;;5067999;27;20531;-76
2022/03/21 07:47:59;;;;;;;16.35;7.05;;;7.60;42.50;;;;;;5086738;27;20246;-77
2022/03/21 07:50:27;;;;;;;17.13;5.82;;;7.70;41.80;;;;;;5069966;27;20039;-77
2022/03/21 07:52:58;;;;;;;16.38;7.03;;;7.70;41.40;;;;;;5068390;27;20063;-77
2022/03/21 07:55:25;;;;;;;12.88;6.30;;;7.80;41.40;;;;;;5083955;27;20070;-77
2022/03/21 07:57:52;;;;;;;19.08;7.32;;;7.90;41.10;;;;;;5069722;27;20051;-80
2022/03/21 08:00:19;;;;;;;12.50;6.78;;;8.00;40.90;;;;;;5059715;27;20122;-80
2022/03/21 08:02:47;;;;;;;14.15;6.93;;;8.10;40.90;;;;;;5062214;28;20043;-74
2022/03/21 08:05:14;;;;;;;13.48;6.63;;;8.20;41.00;;;;;;5066563;27;20044;-73
2022/03/21 08:07:42;;;;;;;13.10;6.60;;;8.30;40.50;;;;;;5082461;27;20044;-76
2022/03/21 08:10:10;;;;;;;15.05;6.97;;;8.40;41.60;;;;;;5071037;27;20466;-76
2022/03/21 08:12:42;;;;;;;15.65;6.75;;;8.50;40.60;;;;;;5066071;27;20047;-76
2022/03/21 08:15:13;;;;;;;16.27;7.18;;;8.60;40.80;;;;;;5074544;27;20511;-73
2022/03/21 08:17:52;;;;;;;15.60;6.65;;;8.70;40.90;;;;;;5066485;27;22760;-76
2022/03/21 08:20:20;;;;;;;18.65;7.10;;;8.90;40.10;;;;;;5073996;27;20784;-77
2022/03/21 08:22:48;;;;;;;15.27;6.28;;;8.80;41.00;;;;;;5081816;27;20051;-78
2022/03/21 08:25:17;;;;;;;14.38;7.30;;;8.90;40.20;;;;;;5069714;27;20047;-78
2022/03/21 08:27:44;;;;;;;13.32;6.43;;;9.10;40.20;;;;;;5068753;27;20126;-76
2022/03/21 08:30:18;;;;;;;13.27;6.53;;;9.20;39.70;;;;;;5068328;28;20426;-78
2022/03/21 08:32:46;;;;;;;15.13;6.95;;;9.30;39.60;;;;;;5067626;28;20059;-78
2022/03/21 08:35:15;;;;;;;15.15;6.68;;;9.40;39.60;;;;;;5050554;28;21407;-78
2022/03/21 08:37:42;;;;;;;11.77;6.03;;;9.60;39.10;;;;;;5076918;28;20040;-79
2022/03/21 08:40:10;;;;;;;18.83;7.00;;;9.70;38.70;;;;;;5074445;28;20263;-79
2022/03/21 08:42:38;;;;;;;11.82;6.40;;;9.90;37.90;;;;;;5065513;28;21297;-76
2022/03/21 08:45:07;;;;;;;15.30;6.97;;;10.00;37.20;;;;;;5086747;28;20050;-75
2022/03/21 08:47:35;;;;;;;13.55;6.93;;;10.20;37.20;;;;;;5068339;28;20790;-74
2022/03/21 08:50:03;;;;;;;16.75;7.65;;;10.30;36.90;;;;;;5083260;28;20054;-78
2022/03/21 08:52:30;;;;;;;15.68;7.43;;;10.30;37.70;;;;;;5068506;28;20097;-77
2022/03/21 08:54:58;;;;;;;13.15;7.00;;;10.40;37.80;;;;;;5071473;28;20055;-77
2022/03/21 08:57:25;;;;;;;15.73;7.13;;;10.40;36.80;;;;;;5050313;28;20068;-77
2022/03/21 08:59:52;;;;;;;15.40;6.75;;;10.60;37.10;;;;;;5068424;28;20131;-77
2022/03/21 09:02:20;;;;;;;13.73;6.25;;;10.60;36.80;;;;;;5067893;28;20039;-77
2022/03/21 09:04:47;;;;;;;11.25;6.13;;;10.80;37.10;;;;;;5061088;28;20058;-72
2022/03/21 09:07:15;;;;;;;14.57;6.90;;;10.90;36.90;;;;;;5073590;28;21433;-73
2022/03/21 09:09:42;;;;;;;15.23;6.80;;;11.00;36.00;;;;;;5063755;28;21067;-73
2022/03/21 09:12:11;;;;;;;15.55;7.07;;;11.00;36.20;;;;;;5061072;28;22667;-73
2022/03/21 09:14:38;;;;;;;15.65;7.03;;;11.20;35.70;;;;;;5067519;27;20051;-73
2022/03/21 09:17:05;;;;;;;15.23;7.47;;;11.30;35.80;;;;;;5043297;28;20166;-73
2022/03/21 09:19:33;;;;;;;13.70;6.68;;;11.40;35.80;;;;;;5046410;28;22530;-73
2022/03/21 09:22:00;;;;;;;14.95;7.70;;;11.50;35.30;;;;;;5061548;28;20044;-73
2022/03/21 09:24:28;;;;;;;16.20;7.10;;;11.60;35.50;;;;;;5054279;28;20059;-77
2022/03/21 09:26:55;;;;;;;12.50;5.80;;;11.70;35.60;;;;;;5064499;28;20698;-78
2022/03/21 09:29:23;;;;;;;14.48;8.00;;;11.70;35.30;;;;;;5065493;28;22386;-74
2022/03/21 09:31:51;;;;;;;15.55;8.23;;;11.80;35.40;;;;;;5062349;28;20054;-73
2022/03/21 09:34:18;;;;;;;12.43;6.30;;;11.80;35.00;;;;;;5062716;28;20062;-73
2022/03/21 09:36:46;;;;;;;16.02;6.63;;;11.90;35.10;;;;;;5056656;28;20057;-73
2022/03/21 09:39:14;;;;;;;15.15;6.72;;;12.00;34.80;;;;;;5057806;28;20776;-73
2022/03/21 09:41:42;;;;;;;12.70;6.72;;;12.10;34.50;;;;;;5058542;28;20131;-75
2022/03/21 09:44:10;;;;;;;13.15;7.47;;;12.10;34.10;;;;;;5068339;27;20052;-74
2022/03/21 09:46:43;;;;;;;15.88;7.90;;;12.20;34.20;;;;;;5068954;27;20047;-74
2022/03/21 09:49:15;;;;;;;11.85;6.95;;;12.20;34.80;;;;;;5084441;27;20165;-74
2022/03/21 09:51:43;;;;;;;14.20;6.70;;;12.30;34.50;;;;;;5055225;27;20051;-74
2022/03/21 09:54:10;;;;;;;16.42;7.15;;;12.40;35.20;;;;;;5067808;27;20079;-74
2022/03/21 09:56:38;;;;;;;13.25;5.88;;;12.30;34.20;;;;;;5075109;27;21100;-73
2022/03/21 09:59:04;;;;;;;12.07;6.40;;;12.40;34.80;;;;;;5080636;27;20243;-74
2022/03/21 10:01:33;;;;;;;12.32;6.32;;;12.50;34.50;;;;;;5083572;27;20075;-74
2022/03/21 10:04:01;;;;;;;10.18;5.78;;;12.60;34.00;;;;;;5064530;27;20059;-74
2022/03/21 10:06:35;;;;;;;15.32;6.47;;;12.70;33.90;;;;;;5067570;27;22706;-74
2022/03/21 10:09:12;;;;;;;11.38;5.63;;;12.70;33.80;;;;;;5063573;27;21203;-74
2022/03/21 10:11:57;;;;;;;11.13;5.90;;;12.80;33.40;;;;;;5058745;27;20039;-72
2022/03/21 10:14:24;;;;;;;11.27;6.05;;;12.80;33.00;;;;;;5052679;27;20721;-72
2022/03/21 10:16:56;;;;;;;10.65;5.65;;;12.90;32.40;;;;;;5052159;27;20051;-72
2022/03/21 10:19:24;;;;;;;11.35;5.45;;;13.00;31.90;;;;;;5059173;27;20051;-74
2022/03/21 10:22:04;;;;;;;12.48;5.75;;;13.00;32.30;;;;;;5068568;27;20055;-72
2022/03/21 10:24:43;;;;;;;11.10;4.97;;;13.00;32.00;;;;;;5059176;27;22192;-73
2022/03/21 10:27:33;;;;;;;9.55;5.15;;;13.20;31.60;;;;;;5064783;27;20064;-73
2022/03/21 10:30:09;;;;;;;12.55;7.07;;;13.40;31.90;;;;;;5051592;27;20055;-71
2022/03/21 10:32:46;;;;;;;13.15;5.78;;;13.40;31.80;;;;;;5071819;27;20856;-71
2022/03/21 10:35:22;;;;;;;12.75;6.80;;;13.50;31.70;;;;;;5042425;27;20822;-72
2022/03/21 10:38:02;;;;;;;13.85;6.50;;;13.50;30.60;;;;;;5050959;27;20085;-72
2022/03/21 10:40:45;;;;;;;13.68;7.53;;;13.70;31.70;;;;;;5072450;27;20058;-74
2022/03/21 10:43:14;;;;;;;13.23;6.53;;;13.80;30.60;;;;;;5053906;27;20106;-71
2022/03/21 10:45:43;;;;;;;13.73;6.75;;;13.80;31.10;;;;;;5046033;27;20105;-72
2022/03/21 10:48:16;;;;;;;11.35;6.35;;;13.90;30.90;;;;;;5050636;27;20111;-72
2022/03/21 10:50:46;;;;;;;10.40;5.90;;;13.90;31.40;;;;;;5067940;27;20043;-71
2022/03/21 10:53:15;;;;;;;13.25;6.07;;;14.00;31.30;;;;;;5040535;27;20058;-71
2022/03/21 10:55:46;;;;;;;10.93;6.72;;;14.10;30.30;;;;;;5053919;27;20111;-71
2022/03/21 10:58:16;;;;;;;11.75;6.38;;;14.10;31.00;;;;;;5071169;27;20044;-72
2022/03/21 11:00:43;;;;;;;10.32;5.57;;;14.20;30.30;;;;;;5049166;27;20246;-72
2022/03/21 11:03:16;;;;;;;10.15;5.30;;;14.20;30.30;;;;;;5068154;27;20101;-72
2022/03/21 11:05:46;;;;;;;12.68;6.43;;;14.20;31.10;;;;;;5056718;27;20073;-71
2022/03/21 11:08:17;;;;;;;9.93;5.55;;;14.30;30.40;;;;;;5072470;27;20058;-73
2022/03/21 11:10:46;;;;;;;9.27;5.55;;;14.20;31.00;;;;;;5077331;27;20047;-74
2022/03/21 11:13:13;;;;;;;13.07;6.25;;;14.30;30.80;;;;;;5079616;27;20074;-74
2022/03/21 11:15:41;;;;;;;11.90;5.53;;;14.30;30.90;;;;;;5066679;27;22267;-74
2022/03/21 11:18:09;;;;;;;12.05;6.13;;;14.40;31.10;;;;;;5081200;27;20110;-72
2022/03/21 11:20:37;;;;;;;9.85;5.50;;;14.50;30.40;;;;;;5051943;27;20222;-71
2022/03/21 11:23:05;;;;;;;8.35;5.20;;;14.50;30.00;;;;;;5031359;27;20043;-72
2022/03/21 11:25:36;;;;;;;12.75;5.65;;;14.50;30.00;;;;;;5048233;27;20051;-71
2022/03/21 11:28:18;;;;;;;8.98;4.30;;;14.50;30.40;;;;;;5066113;27;20097;-74
2022/03/21 11:31:07;;;;;;;10.43;5.40;;;14.60;30.40;;;;;;5081481;27;20043;-74
2022/03/21 11:33:35;;;;;;;12.20;6.72;;;14.70;30.40;;;;;;5077957;27;20159;-74
2022/03/21 11:36:13;;;;;;;9.52;4.57;;;14.80;29.30;;;;;;5061117;27;20135;-74
2022/03/21 11:38:45;;;;;;;10.38;4.15;;;14.80;29.50;;;;;;5064162;27;20630;-74
2022/03/21 11:41:24;;;;;;;7.03;4.53;;;14.90;29.60;;;;;;5044465;27;20616;-74
2022/03/21 11:44:03;;;;;;;9.15;3.85;;;15.00;29.40;;;;;;5075318;27;20082;-74
2022/03/21 11:46:33;;;;;;;9.07;4.45;;;15.20;29.00;;;;;;5075572;27;20039;-74
2022/03/21 11:49:03;;;;;;;9.55;4.75;;;15.30;29.20;;;;;;5058453;27;20051;-73
2022/03/21 11:51:38;;;;;;;10.05;4.35;;;15.30;29.40;;;;;;5074974;27;20139;-74
2022/03/21 11:54:23;;;;;;;7.32;4.20;;;15.20;29.30;;;;;;5059691;27;20055;-73
2022/03/21 11:56:56;;;;;;;9.95;4.63;;;15.10;28.90;;;;;;5056954;27;20237;-74
2022/03/21 11:59:32;;;;;;;10.32;5.22;;;15.10;29.60;;;;;;5075415;27;20081;-73
2022/03/21 12:02:07;;;;;;;8.88;4.90;;;15.10;29.50;;;;;;5075595;27;22394;-74
2022/03/21 12:04:34;;;;;;;7.72;4.20;;;15.20;29.30;;;;;;5074035;27;20050;-74
2022/03/21 12:07:14;;;;;;;10.65;4.80;;;15.30;29.20;;;;;;5060178;27;20082;-73
2022/03/21 12:09:46;;;;;;;9.88;5.10;;;15.50;29.20;;;;;;5041642;27;22635;-73
2022/03/21 12:12:14;;;;;;;11.82;5.10;;;15.60;29.20;;;;;;5061373;27;20514;-73
2022/03/21 12:14:45;;;;;;;10.75;4.82;;;15.50;29.50;;;;;;5056757;27;20051;-74
2022/03/21 12:17:12;;;;;;;10.63;4.85;;;15.30;29.20;;;;;;5057419;27;20156;-73
2022/03/21 12:19:46;;;;;;;9.40;4.75;;;15.20;29.20;;;;;;5077256;27;20062;-73
2022/03/21 12:22:36;;;;;;;9.27;5.03;;;15.30;29.80;;;;;;5047732;28;21318;-71
2022/03/21 12:25:29;;;;;;;8.88;4.30;;;15.50;29.10;;;;;;5064279;27;20055;-71
2022/03/21 12:27:58;;;;;;;13.18;5.25;;;15.50;28.90;;;;;;5065131;27;20979;-72
2022/03/21 12:30:31;;;;;;;9.50;4.78;;;15.60;28.80;;;;;;5068339;27;21067;-71
2022/03/21 12:33:12;;;;;;;11.63;4.90;;;15.60;28.10;;;;;;5065402;27;22463;-71
2022/03/21 12:35:43;;;;;;;8.10;4.60;;;15.30;28.20;;;;;;5050403;28;20168;-71
2022/03/21 12:38:11;;;;;;;9.80;4.45;;;15.40;28.80;;;;;;5075935;28;20090;-74
2022/03/21 12:41:00;;;;;;;9.32;4.82;;;15.60;29.10;;;;;;5055266;28;20128;-73
2022/03/21 12:43:30;;;;;;;8.88;4.50;;;15.70;28.60;;;;;;5057044;28;20064;-74
2022/03/21 12:46:07;;;;;;;11.55;4.63;;;15.60;28.60;;;;;;5056428;28;21020;-74
2022/03/21 12:48:42;;;;;;;9.65;4.63;;;15.60;28.40;;;;;;5050513;28;20054;-77
2022/03/21 12:51:13;;;;;;;9.35;4.85;;;15.60;28.30;;;;;;5053300;28;20055;-76
2022/03/21 12:53:44;;;;;;;7.93;4.35;;;15.60;28.40;;;;;;5063603;28;20047;-73
2022/03/21 12:56:13;;;;;;;10.02;5.05;;;15.60;28.20;;;;;;5072250;28;20055;-75
2022/03/21 12:58:45;;;;;;;7.60;3.92;;;15.60;28.50;;;;;;5077825;28;20104;-74
2022/03/21 13:01:18;;;;;;;7.97;3.92;;;15.70;28.20;;;;;;5075748;28;20043;-73
2022/03/21 13:03:46;;;;;;;8.35;4.25;;;15.50;28.40;;;;;;5047503;28;20246;-74
2022/03/21 13:11:52;;;;;;;7.97;4.40;;;15.60;28.90;;;;;;5060694;28;20362;-74
2022/03/21 13:14:20;;;;;;;8.02;4.35;;;15.70;28.30;;;;;;5078892;27;20048;-74
2022/03/21 13:17:00;;;;;;;8.73;4.82;;;15.90;28.70;;;;;;5062114;27;20062;-75